Flugplatz Soest/Bad Sassendorf

Für EDLZ sind keine METAR/TAF Berichte vorhanden.
Es werden die Flugwettermeldungen vom Flugplatz Paderborn Lippstadt in 28 km Entfernung angezeigt.

Bericht für EDLP

vom 18.09. um 23:50 UTC

Wind 4 kt aus 100°

Sichtweite 10 km oder mehr

gute Sicht, keine Wolken < 5000 ft, keine CB, keine Wettererscheinungen (CAVOK)

Temperatur 11.0°C

Taupunkt 2.0°C

Luftfeuchtigkeit 54%

Luftdruck 1022 hPa

EDLP 182350Z 10004KT CAVOK 11/02 Q1022

Prognose für EDLP

vom 18.09. um 23:20 UTC

Zwischen 00:00 UTC und 00:00 UTC

Wind 6 kt aus 120°

Sichtweite 10 km oder mehr

keine signifikanten Wettererscheinungen

keine Wolken


Zwischen 09:00 UTC und 16:00 UTC zeitweise

Wind 11 kt aus 120°

TAF EDLP 182320Z 1900/1924 12006KT CAVOK TEMPO 1909/1916 12011KT
Impressum